createdAt,value
2022-11-29T00:01:39.667Z,81.22
2022-11-29T00:04:08.213Z,81.22
2022-11-29T00:06:36.923Z,80.94
2022-11-29T00:09:07.280Z,81.16
2022-11-29T00:11:54.660Z,80.77
2022-11-29T00:14:25.344Z,80.70
2022-11-29T00:16:56.093Z,80.96
2022-11-29T00:19:24.111Z,80.79
2022-11-29T00:21:52.079Z,81.48
2022-11-29T00:24:20.145Z,81.00
2022-11-29T00:26:48.971Z,80.95
2022-11-29T00:29:17.371Z,81.17
2022-11-29T00:31:46.955Z,81.66
2022-11-29T00:34:14.862Z,81.48
2022-11-29T00:36:42.836Z,81.08
2022-11-29T00:39:12.850Z,80.87
2022-11-29T00:41:41.284Z,81.09
2022-11-29T00:44:09.640Z,81.23
2022-11-29T00:46:37.680Z,81.17
2022-11-29T00:49:07.108Z,81.65
2022-11-29T00:51:35.259Z,81.33
2022-11-29T00:54:03.263Z,81.20
2022-11-29T00:56:31.405Z,81.00
2022-11-29T00:58:59.412Z,80.99
2022-11-29T01:01:27.557Z,81.19
2022-11-29T01:03:55.576Z,81.60
2022-11-29T01:06:24.785Z,81.00
2022-11-29T01:08:52.744Z,81.28
2022-11-29T01:11:22.240Z,81.60
2022-11-29T01:13:51.239Z,81.04
2022-11-29T01:16:19.312Z,81.27
2022-11-29T01:18:47.392Z,80.98
2022-11-29T01:21:17.113Z,81.23
2022-11-29T01:23:48.075Z,81.47
2022-11-29T01:26:18.772Z,81.39
2022-11-29T01:28:47.872Z,81.07
2022-11-29T01:31:18.684Z,80.96
2022-11-29T01:33:47.372Z,81.32
2022-11-29T01:36:16.156Z,81.29
2022-11-29T01:38:44.141Z,81.62
2022-11-29T01:41:15.643Z,81.88
2022-11-29T01:43:59.645Z,81.83
2022-11-29T01:46:29.152Z,82.00
2022-11-29T01:49:01.575Z,82.12
2022-11-29T01:51:30.921Z,82.34
2022-11-29T01:53:59.612Z,82.58
2022-11-29T01:56:30.972Z,82.39
2022-11-29T01:58:59.145Z,82.25
2022-11-29T02:01:27.335Z,82.36
2022-11-29T02:03:55.688Z,82.75
2022-11-29T02:06:24.540Z,83.04
2022-11-29T02:08:52.464Z,83.06
2022-11-29T02:11:46.655Z,83.01
2022-11-29T02:14:37.366Z,82.98
2022-11-29T02:17:16.698Z,83.09
2022-11-29T02:20:10.160Z,82.81
2022-11-29T02:22:42.683Z,83.12
2022-11-29T02:25:25.230Z,83.11
2022-11-29T02:28:31.800Z,83.40
2022-11-29T02:31:24.988Z,83.32
2022-11-29T02:34:09.028Z,83.29
2022-11-29T02:36:59.124Z,83.50
2022-11-29T02:39:58.833Z,83.26
2022-11-29T02:42:56.576Z,83.17
2022-11-29T02:45:50.001Z,82.99
2022-11-29T02:48:42.280Z,83.71
2022-11-29T02:51:18.575Z,83.29
2022-11-29T02:53:54.711Z,83.42
2022-11-29T02:56:30.340Z,83.54
2022-11-29T02:59:04.553Z,83.64
2022-11-29T03:01:38.283Z,83.51
2022-11-29T03:04:14.917Z,83.37
2022-11-29T03:06:51.446Z,83.24
2022-11-29T03:09:29.903Z,83.30
2022-11-29T03:12:08.765Z,83.50
2022-11-29T03:14:48.999Z,83.25
2022-11-29T03:17:26.036Z,83.37
2022-11-29T03:20:08.480Z,83.11
2022-11-29T03:22:44.740Z,83.22
2022-11-29T03:25:20.111Z,83.22
2022-11-29T03:27:53.969Z,83.52
2022-11-29T03:30:22.727Z,83.16
2022-11-29T03:33:01.918Z,83.09
2022-11-29T03:35:37.700Z,82.67
2022-11-29T03:38:17.161Z,83.13
2022-11-29T03:40:50.972Z,82.93
2022-11-29T03:43:24.749Z,82.94
2022-11-29T03:45:58.545Z,82.61
2022-11-29T03:48:32.264Z,83.27
2022-11-29T03:51:04.741Z,82.85
2022-11-29T03:53:40.804Z,82.82
2022-11-29T03:56:24.903Z,82.77
2022-11-29T03:59:02.867Z,82.54
2022-11-29T04:01:56.803Z,82.79
2022-11-29T04:04:59.389Z,83.05
2022-11-29T04:08:01.731Z,82.54
2022-11-29T04:10:58.103Z,82.70
2022-11-29T04:13:57.729Z,82.91
2022-11-29T04:17:04.945Z,82.46
2022-11-29T04:20:14.943Z,82.56
2022-11-29T04:23:11.706Z,82.74
2022-11-29T04:25:52.935Z,82.71
2022-11-29T04:29:00.126Z,83.04
2022-11-29T04:31:39.015Z,83.06
2022-11-29T04:34:31.595Z,83.00
2022-11-29T04:37:19.670Z,82.93
2022-11-29T04:40:10.731Z,82.70
2022-11-29T04:43:05.120Z,82.91
2022-11-29T04:46:15.016Z,82.94
2022-11-29T04:49:07.563Z,83.11
2022-11-29T04:51:48.863Z,82.90
2022-11-29T04:54:25.745Z,82.90
2022-11-29T04:57:00.106Z,83.20
2022-11-29T04:59:36.639Z,83.28
2022-11-29T05:02:14.936Z,83.43
2022-11-29T05:04:51.696Z,83.54
2022-11-29T05:07:30.811Z,83.24
2022-11-29T05:10:07.179Z,83.58
2022-11-29T05:12:44.109Z,83.48
2022-11-29T05:15:42.680Z,83.81
2022-11-29T05:18:19.804Z,83.52
2022-11-29T05:20:53.826Z,83.86
2022-11-29T05:23:45.827Z,83.86
2022-11-29T05:26:17.541Z,83.77
2022-11-29T05:28:54.609Z,83.74
2022-11-29T05:31:52.511Z,83.51
2022-11-29T05:34:38.981Z,83.83
2022-11-29T05:37:22.753Z,83.44
2022-11-29T05:40:11.896Z,83.18
2022-11-29T05:42:57.317Z,83.84
2022-11-29T05:45:30.651Z,83.60
2022-11-29T05:48:06.082Z,83.56
2022-11-29T05:50:38.654Z,83.38
2022-11-29T05:53:18.047Z,83.16
2022-11-29T05:55:56.191Z,83.47
2022-11-29T05:58:39.339Z,83.00
2022-11-29T06:01:19.472Z,83.07
2022-11-29T06:03:58.398Z,83.46
2022-11-29T06:06:39.205Z,83.43
2022-11-29T06:09:16.162Z,83.64
2022-11-29T06:11:47.888Z,83.53
2022-11-29T06:14:33.920Z,83.52
2022-11-29T06:17:19.564Z,83.67
2022-11-29T06:20:04.197Z,83.74
2022-11-29T06:22:52.831Z,83.28
2022-11-29T06:25:37.260Z,83.38
2022-11-29T06:28:23.718Z,83.51
2022-11-29T06:31:02.094Z,83.32
2022-11-29T06:33:39.713Z,83.33
2022-11-29T06:36:16.896Z,83.58
2022-11-29T06:38:45.877Z,83.39
2022-11-29T06:41:19.021Z,83.30
2022-11-29T06:43:47.972Z,83.33
2022-11-29T06:46:27.871Z,82.99
2022-11-29T06:49:03.458Z,82.65
2022-11-29T06:51:43.959Z,82.64
2022-11-29T06:54:25.973Z,82.56
2022-11-29T06:57:01.599Z,82.82
2022-11-29T06:59:42.897Z,82.47
2022-11-29T07:02:29.057Z,82.55
2022-11-29T07:05:09.324Z,82.36
2022-11-29T07:07:39.701Z,82.58
2022-11-29T07:10:13.530Z,82.78
2022-11-29T07:12:43.348Z,82.68
2022-11-29T07:15:15.468Z,82.67
2022-11-29T07:17:56.275Z,82.49
2022-11-29T07:20:33.876Z,82.18
2022-11-29T07:23:12.201Z,82.54
2022-11-29T07:25:50.957Z,82.36
2022-11-29T07:28:30.860Z,82.58
2022-11-29T07:31:08.492Z,82.75
2022-11-29T07:33:45.067Z,82.67
2022-11-29T07:36:19.508Z,82.41
2022-11-29T07:38:59.587Z,82.51
2022-11-29T07:41:34.384Z,82.39
2022-11-29T07:44:11.382Z,82.44
2022-11-29T07:46:39.412Z,82.11
2022-11-29T07:49:10.502Z,82.17
2022-11-29T07:51:38.780Z,81.88
2022-11-29T07:54:08.364Z,81.81
2022-11-29T07:56:36.275Z,81.94
2022-11-29T07:59:04.273Z,81.21
2022-11-29T08:01:32.519Z,81.37
2022-11-29T08:04:00.553Z,80.77
2022-11-29T08:06:28.517Z,80.48
2022-11-29T08:08:58.413Z,80.37
2022-11-29T08:11:28.224Z,80.78
2022-11-29T08:13:57.453Z,80.26
2022-11-29T08:16:25.602Z,80.38
2022-11-29T08:18:53.611Z,80.18
2022-11-29T08:21:21.963Z,80.56
2022-11-29T08:23:51.079Z,80.39
2022-11-29T08:26:20.667Z,80.18
2022-11-29T08:28:53.187Z,80.79
2022-11-29T08:31:22.101Z,80.78
2022-11-29T08:33:50.079Z,80.57
2022-11-29T08:36:20.292Z,80.70
2022-11-29T08:38:49.023Z,81.20
2022-11-29T08:41:18.344Z,81.55
2022-11-29T08:43:46.531Z,81.18
2022-11-29T08:46:18.783Z,80.99
2022-11-29T08:48:47.348Z,81.15
2022-11-29T08:51:16.089Z,81.01
2022-11-29T08:53:43.410Z,80.62
2022-11-29T08:56:49.405Z,80.67
2022-11-29T08:58:59.885Z,80.82
2022-11-29T09:01:30.117Z,80.47
2022-11-29T09:04:02.876Z,80.12
2022-11-29T09:06:32.723Z,79.94
2022-11-29T09:09:02.098Z,80.03
2022-11-29T09:11:31.269Z,79.61
2022-11-29T09:14:00.749Z,79.34
2022-11-29T09:16:33.412Z,79.96
2022-11-29T09:19:01.511Z,79.90
2022-11-29T09:21:32.185Z,79.52
2022-11-29T09:24:01.714Z,80.06
2022-11-29T09:26:31.949Z,81.03
2022-11-29T09:29:01.263Z,79.90
2022-11-29T09:31:32.217Z,80.28
2022-11-29T09:34:00.364Z,80.75
2022-11-29T09:36:30.690Z,80.60
2022-11-29T09:38:58.977Z,80.45
2022-11-29T09:41:48.175Z,81.10
2022-11-29T09:44:25.075Z,80.52
2022-11-29T09:47:02.861Z,80.79
2022-11-29T09:49:46.007Z,80.53
2022-11-29T09:52:23.197Z,80.66
2022-11-29T09:55:01.258Z,80.80
2022-11-29T09:57:30.746Z,81.25
2022-11-29T10:00:03.364Z,81.10
2022-11-29T10:02:45.283Z,82.25
2022-11-29T10:05:20.394Z,81.88
2022-11-29T10:07:52.395Z,81.38
2022-11-29T10:10:27.631Z,81.48
2022-11-29T10:13:01.510Z,81.02
2022-11-29T10:15:32.567Z,80.88
2022-11-29T10:18:06.046Z,80.44
2022-11-29T10:20:42.484Z,80.18
2022-11-29T10:23:21.221Z,79.97
2022-11-29T10:25:51.149Z,79.44
2022-11-29T10:28:21.832Z,78.91
2022-11-29T10:30:52.824Z,79.34
2022-11-29T10:33:26.431Z,79.21
2022-11-29T10:35:57.146Z,79.07
2022-11-29T10:38:32.513Z,78.92
2022-11-29T10:41:10.056Z,78.69
2022-11-29T10:43:38.802Z,77.49
2022-11-29T10:46:12.868Z,78.27
2022-11-29T10:48:42.576Z,77.07
2022-11-29T10:51:18.040Z,76.61
2022-11-29T10:53:46.558Z,76.47
2022-11-29T10:56:22.326Z,76.34
2022-11-29T10:58:56.849Z,75.82
2022-11-29T11:01:26.329Z,75.26
2022-11-29T11:03:58.285Z,74.64
2022-11-29T11:06:29.417Z,74.56
2022-11-29T11:09:12.258Z,74.47
2022-11-29T11:11:40.743Z,74.12
2022-11-29T11:14:22.229Z,74.21
2022-11-29T11:16:50.869Z,74.00
2022-11-29T11:19:28.943Z,74.49
2022-11-29T11:21:58.651Z,74.10
2022-11-29T11:24:29.633Z,73.82
2022-11-29T11:26:58.797Z,74.04
2022-11-29T11:29:31.029Z,74.56
2022-11-29T11:32:00.923Z,75.19
2022-11-29T11:34:34.327Z,75.79
2022-11-29T11:37:20.544Z,76.47
2022-11-29T11:39:50.985Z,76.86
2022-11-29T11:42:37.861Z,76.78
2022-11-29T11:45:24.130Z,76.41
2022-11-29T11:47:54.968Z,76.13
2022-11-29T11:50:33.816Z,76.15
2022-11-29T11:53:07.167Z,77.10
2022-11-29T11:55:38.514Z,77.49
2022-11-29T11:58:19.053Z,77.01
2022-11-29T12:01:06.329Z,77.67
2022-11-29T12:03:40.018Z,77.12
2022-11-29T12:06:15.610Z,77.54
2022-11-29T12:08:45.799Z,78.56
2022-11-29T12:11:17.757Z,78.57
2022-11-29T12:13:50.026Z,78.46
2022-11-29T12:16:27.524Z,78.26
2022-11-29T12:19:02.644Z,78.27
2022-11-29T12:21:37.679Z,78.74
2022-11-29T12:24:19.937Z,78.87
2022-11-29T12:26:57.115Z,77.98
2022-11-29T12:29:29.796Z,78.53
2022-11-29T12:32:08.717Z,78.59
2022-11-29T12:34:59.820Z,78.89
2022-11-29T12:37:37.167Z,78.36
2022-11-29T12:40:14.539Z,78.59
2022-11-29T12:42:53.294Z,79.67
2022-11-29T12:45:35.436Z,78.84
2022-11-29T12:48:14.674Z,78.50
2022-11-29T12:50:55.634Z,78.20
2022-11-29T12:53:42.092Z,78.93
2022-11-29T12:56:16.391Z,78.37
2022-11-29T12:59:01.024Z,78.95
2022-11-29T13:01:37.795Z,78.39
2022-11-29T13:04:23.256Z,79.03
2022-11-29T13:06:58.865Z,79.25
2022-11-29T13:09:57.069Z,77.97
2022-11-29T13:12:33.945Z,78.42
2022-11-29T13:15:06.381Z,78.48
2022-11-29T13:17:42.310Z,78.52
2022-11-29T13:20:25.048Z,78.94
2022-11-29T13:22:58.446Z,79.09
2022-11-29T13:25:31.292Z,79.08
2022-11-29T13:28:04.659Z,78.71
2022-11-29T13:30:35.513Z,78.64
2022-11-29T13:33:09.390Z,79.00
2022-11-29T13:35:43.160Z,78.97
2022-11-29T13:38:19.534Z,79.31
2022-11-29T13:40:58.556Z,79.47
2022-11-29T13:43:33.967Z,79.19
2022-11-29T13:46:12.789Z,78.99
2022-11-29T13:48:48.994Z,79.25
2022-11-29T13:51:32.657Z,79.50
2022-11-29T13:54:03.392Z,79.48
2022-11-29T13:56:42.809Z,79.15
2022-11-29T13:59:18.579Z,78.54
2022-11-29T14:01:50.306Z,78.59
2022-11-29T14:04:29.973Z,79.11
2022-11-29T14:07:11.384Z,79.22
2022-11-29T14:09:48.431Z,79.34
2022-11-29T14:12:35.774Z,79.19
2022-11-29T14:15:16.165Z,78.76
2022-11-29T14:17:50.709Z,78.71
2022-11-29T14:20:59.180Z,79.02
2022-11-29T14:23:39.059Z,78.97
2022-11-29T14:26:28.745Z,79.70
2022-11-29T14:28:59.715Z,79.35
2022-11-29T14:31:51.483Z,78.98
2022-11-29T14:34:38.070Z,79.66
2022-11-29T14:37:18.459Z,79.81
2022-11-29T14:39:48.448Z,79.80
2022-11-29T14:42:19.014Z,79.91
2022-11-29T14:44:52.155Z,80.04
2022-11-29T14:47:25.071Z,80.22
2022-11-29T14:49:55.944Z,80.89
2022-11-29T14:52:29.364Z,80.10
2022-11-29T14:55:04.265Z,80.63
2022-11-29T14:57:54.952Z,80.91
2022-11-29T15:00:27.395Z,81.80
2022-11-29T15:02:59.981Z,81.29
2022-11-29T15:05:33.889Z,81.62
2022-11-29T15:08:10.430Z,81.83
2022-11-29T15:10:42.273Z,81.43
2022-11-29T15:13:14.500Z,81.50
2022-11-29T15:16:07.437Z,81.78
2022-11-29T15:19:09.002Z,81.64
2022-11-29T15:21:46.363Z,81.51
2022-11-29T15:24:16.930Z,81.63
2022-11-29T15:26:56.581Z,81.62
2022-11-29T15:29:24.815Z,81.41
2022-11-29T15:31:57.817Z,82.05
2022-11-29T15:34:32.430Z,82.54
2022-11-29T15:37:01.084Z,83.17
2022-11-29T15:39:31.371Z,83.01
2022-11-29T15:42:03.770Z,83.72
2022-11-29T15:44:33.667Z,84.47
2022-11-29T15:47:27.641Z,84.11
2022-11-29T15:49:55.829Z,85.44
2022-11-29T15:52:29.299Z,85.39
2022-11-29T15:55:01.850Z,85.70
2022-11-29T15:57:36.206Z,86.04
2022-11-29T16:00:08.277Z,87.54
2022-11-29T16:02:41.393Z,85.82
2022-11-29T16:05:17.207Z,86.06
2022-11-29T16:07:47.209Z,87.27
2022-11-29T16:10:18.431Z,86.32
2022-11-29T16:12:58.763Z,86.82
2022-11-29T16:15:30.264Z,87.09
2022-11-29T16:18:05.384Z,87.46
2022-11-29T16:20:33.545Z,86.79
2022-11-29T16:23:15.319Z,87.70
2022-11-29T16:25:59.774Z,87.38
2022-11-29T16:28:32.646Z,87.74
2022-11-29T16:31:00.747Z,87.98
2022-11-29T16:33:30.133Z,87.52
2022-11-29T16:36:06.886Z,87.22
2022-11-29T16:38:34.963Z,87.01
2022-11-29T16:41:08.304Z,87.35
2022-11-29T16:43:55.351Z,86.88
2022-11-29T16:46:38.447Z,86.28
2022-11-29T16:49:34.540Z,87.40
2022-11-29T16:52:03.631Z,87.59
2022-11-29T16:54:34.150Z,86.92
2022-11-29T16:57:05.942Z,86.93
2022-11-29T16:59:35.238Z,87.06
2022-11-29T17:02:04.673Z,86.78
2022-11-29T17:04:34.033Z,86.43
2022-11-29T17:07:02.190Z,86.85
2022-11-29T17:09:33.061Z,86.59
2022-11-29T17:12:01.925Z,86.98
2022-11-29T17:14:31.141Z,86.64
2022-11-29T17:17:02.559Z,86.60
2022-11-29T17:19:31.321Z,86.26
2022-11-29T17:22:00.720Z,85.89
2022-11-29T17:24:28.708Z,86.34
2022-11-29T17:26:56.789Z,86.31
2022-11-29T17:29:24.776Z,86.50
2022-11-29T17:31:53.442Z,86.83
2022-11-29T17:34:21.575Z,86.84
2022-11-29T17:36:49.582Z,87.20
2022-11-29T17:39:20.178Z,87.15
2022-11-29T17:41:48.519Z,86.97
2022-11-29T17:44:16.544Z,87.19
2022-11-29T17:46:44.566Z,88.11
2022-11-29T17:49:12.523Z,88.07
2022-11-29T17:51:56.446Z,88.76
2022-11-29T17:54:25.810Z,88.44
2022-11-29T17:56:53.811Z,89.20
2022-11-29T17:59:21.789Z,89.56
2022-11-29T18:01:49.875Z,88.98
2022-11-29T18:04:18.051Z,89.69
2022-11-29T18:06:49.677Z,89.62
2022-11-29T18:09:19.625Z,89.89
2022-11-29T18:11:50.630Z,90.16
2022-11-29T18:14:20.956Z,90.52
2022-11-29T18:16:49.285Z,90.84
2022-11-29T18:19:19.936Z,90.74
2022-11-29T18:21:49.614Z,90.48
2022-11-29T18:24:17.942Z,90.67
2022-11-29T18:26:46.370Z,90.61
2022-11-29T18:29:15.807Z,91.37
2022-11-29T18:31:45.958Z,90.97
2022-11-29T18:34:15.637Z,91.60
2022-11-29T18:36:45.626Z,92.05
2022-11-29T18:39:15.244Z,91.83
2022-11-29T18:41:45.021Z,91.94
2022-11-29T18:44:16.016Z,91.99
2022-11-29T18:46:45.807Z,92.41
2022-11-29T18:49:15.416Z,92.65
2022-11-29T18:51:45.644Z,93.03
2022-11-29T18:54:14.587Z,92.93
2022-11-29T18:56:43.820Z,92.64
2022-11-29T18:59:14.766Z,92.85
2022-11-29T19:01:45.357Z,93.41
2022-11-29T19:04:15.144Z,92.95
2022-11-29T19:06:44.110Z,93.29
2022-11-29T19:09:14.413Z,92.65
2022-11-29T19:11:42.721Z,93.40
2022-11-29T19:14:12.955Z,93.19
2022-11-29T19:16:42.656Z,93.53
2022-11-29T19:19:12.619Z,93.58
2022-11-29T19:21:40.925Z,93.66
2022-11-29T19:24:14.848Z,93.81
2022-11-29T19:26:45.374Z,93.46
2022-11-29T19:29:13.750Z,93.48
2022-11-29T19:31:42.400Z,93.08
2022-11-29T19:34:12.219Z,93.58
2022-11-29T19:36:43.118Z,93.70
2022-11-29T19:39:13.665Z,93.69
2022-11-29T19:41:43.984Z,93.89
2022-11-29T19:44:12.833Z,93.97
2022-11-29T19:46:42.632Z,94.28
2022-11-29T19:49:12.246Z,93.86
2022-11-29T19:51:40.355Z,93.68
2022-11-29T19:54:10.039Z,94.11
2022-11-29T19:56:38.913Z,93.49
2022-11-29T19:59:07.852Z,93.66
2022-11-29T20:01:43.639Z,93.35
2022-11-29T20:04:16.664Z,93.76
2022-11-29T20:06:46.583Z,93.57
2022-11-29T20:09:15.177Z,93.80
2022-11-29T20:11:43.866Z,94.01
2022-11-29T20:14:14.501Z,93.97
2022-11-29T20:16:43.541Z,93.43
2022-11-29T20:19:14.997Z,93.72
2022-11-29T20:21:44.797Z,93.93
2022-11-29T20:24:14.243Z,93.98
2022-11-29T20:26:45.014Z,94.29
2022-11-29T20:29:14.258Z,93.95
2022-11-29T20:31:49.601Z,94.07
2022-11-29T20:34:20.832Z,94.09
2022-11-29T20:37:13.055Z,94.39
2022-11-29T20:39:47.099Z,94.86
2022-11-29T20:42:37.483Z,94.50
2022-11-29T20:45:10.466Z,94.32
2022-11-29T20:47:45.811Z,94.33
2022-11-29T20:50:23.222Z,94.64
2022-11-29T20:53:02.932Z,94.59
2022-11-29T20:55:31.159Z,94.69
2022-11-29T20:57:59.161Z,94.29
2022-11-29T21:00:27.520Z,94.75
2022-11-29T21:02:55.573Z,94.38
2022-11-29T21:05:24.867Z,94.35
2022-11-29T21:07:52.869Z,94.35
2022-11-29T21:10:21.922Z,95.00
2022-11-29T21:12:50.407Z,95.16
2022-11-29T21:15:19.605Z,95.38
2022-11-29T21:17:48.245Z,95.64
2022-11-29T21:20:20.281Z,95.42
2022-11-29T21:22:55.515Z,95.19
2022-11-29T21:25:35.931Z,95.30
2022-11-29T21:28:09.452Z,95.15
2022-11-29T21:30:38.341Z,95.61
2022-11-29T21:33:06.967Z,95.50
2022-11-29T21:35:36.485Z,95.25
2022-11-29T21:38:05.868Z,95.74
2022-11-29T21:40:34.037Z,95.39
2022-11-29T21:43:02.029Z,95.32
2022-11-29T21:45:29.946Z,95.40
2022-11-29T21:48:00.815Z,95.03
2022-11-29T21:50:28.913Z,95.42
2022-11-29T21:52:57.579Z,95.25
2022-11-29T21:55:31.830Z,95.06
2022-11-29T21:58:00.380Z,95.15
2022-11-29T22:00:30.953Z,95.08
2022-11-29T22:03:02.482Z,95.18
2022-11-29T22:05:31.964Z,94.87
2022-11-29T22:08:00.198Z,95.17
2022-11-29T22:10:30.075Z,95.20
2022-11-29T22:12:59.293Z,95.07
2022-11-29T22:15:29.486Z,95.25
2022-11-29T22:17:57.542Z,95.13
2022-11-29T22:20:25.557Z,95.26
2022-11-29T22:22:58.406Z,95.44
2022-11-29T22:25:26.800Z,95.20
2022-11-29T22:27:56.112Z,95.38
2022-11-29T22:30:24.039Z,95.64
2022-11-29T22:32:52.025Z,95.60
2022-11-29T22:35:20.011Z,95.78
2022-11-29T22:37:48.005Z,96.00
2022-11-29T22:40:16.959Z,95.46
2022-11-29T22:42:44.892Z,95.60
2022-11-29T22:45:14.265Z,95.76
2022-11-29T22:47:42.248Z,95.71
2022-11-29T22:50:11.585Z,95.59
2022-11-29T22:52:39.511Z,95.49
2022-11-29T22:55:08.062Z,96.03
2022-11-29T22:57:36.402Z,95.07
2022-11-29T23:00:05.353Z,95.51
2022-11-29T23:02:34.777Z,95.44
2022-11-29T23:05:02.962Z,95.73
2022-11-29T23:07:31.107Z,95.78
2022-11-29T23:09:59.110Z,95.96
2022-11-29T23:12:27.083Z,95.59
2022-11-29T23:14:56.839Z,95.47
2022-11-29T23:17:25.230Z,95.22
2022-11-29T23:19:54.672Z,95.24
2022-11-29T23:22:22.649Z,95.73
2022-11-29T23:24:50.593Z,95.78
2022-11-29T23:27:18.544Z,95.67
2022-11-29T23:29:46.449Z,95.81
2022-11-29T23:32:14.512Z,95.87
2022-11-29T23:34:42.379Z,95.40
2022-11-29T23:37:11.628Z,95.82
2022-11-29T23:39:39.550Z,95.12
2022-11-29T23:42:07.504Z,95.92
2022-11-29T23:44:35.375Z,95.18
2022-11-29T23:47:03.329Z,95.52
2022-11-29T23:49:31.213Z,95.34
2022-11-29T23:51:59.142Z,95.59
2022-11-29T23:54:28.560Z,95.08
2022-11-29T23:56:56.495Z,94.88
2022-11-29T23:59:24.385Z,94.57
